Aromas, California
Current Conditions -  °F | °C
As of 10:53 PM on Tuesday 21 Oct 2014 (Local Time) from KWVI Reporting Station
Clear Clear  
Wind Chill: 56°   Ceiling: Unl
Heat Index: 56°   Visibility: 10mi
Dew Point: 48°   Wind: 6mph
Humidity: 75%   Direction: 310°NW
Pressure: 30.05"   Gusts: NA
Location:  36.88°N, 121.64°W
Report Text: KWVI 220553Z AUTO 31005KT 10SM CLR 13/09 A3005 RMK AO2 SLP174 T01330089 10222 20133 51011
Loading
Personal Weather Stations






























Interactive Weather Map
Tropical Storm Tracking
New forecast layout! Learn more

10-Day Weather Forecast

Advertisements
Track Severe Weather on mobile